sensor_id;sensor_type;location;lat;lon;timestamp;pressure;altitude;pressure_sealevel;temperature;humidity
24610;BME280;12758;47.890;11.694;2022-11-28T00:01:17;93764.34;;;2.40;100.00
24610;BME280;12758;47.890;11.694;2022-11-28T00:03:43;93767.00;;;2.45;100.00
24610;BME280;12758;47.890;11.694;2022-11-28T00:06:09;93760.56;;;2.41;100.00
24610;BME280;12758;47.890;11.694;2022-11-28T00:08:36;93750.44;;;2.38;100.00
24610;BME280;12758;47.890;11.694;2022-11-28T00:11:03;93748.28;;;2.40;100.00
24610;BME280;12758;47.890;11.694;2022-11-28T00:13:29;93745.59;;;2.40;100.00
24610;BME280;12758;47.890;11.694;2022-11-28T00:15:55;93736.28;;;2.32;100.00
24610;BME280;12758;47.890;11.694;2022-11-28T00:18:21;93727.97;;;2.33;100.00
24610;BME280;12758;47.890;11.694;2022-11-28T00:20:47;93737.09;;;2.32;100.00
24610;BME280;12758;47.890;11.694;2022-11-28T00:23:13;93728.75;;;2.34;100.00
24610;BME280;12758;47.890;11.694;2022-11-28T00:25:40;93720.00;;;2.28;100.00
24610;BME280;12758;47.890;11.694;2022-11-28T00:28:06;93717.56;;;2.32;100.00
24610;BME280;12758;47.890;11.694;2022-11-28T00:30:35;93712.47;;;2.30;100.00
24610;BME280;12758;47.890;11.694;2022-11-28T00:33:01;93711.09;;;2.33;100.00
24610;BME280;12758;47.890;11.694;2022-11-28T00:35:27;93712.38;;;2.41;100.00
24610;BME280;12758;47.890;11.694;2022-11-28T00:37:53;93708.66;;;2.37;100.00
24610;BME280;12758;47.890;11.694;2022-11-28T00:40:19;93711.34;;;2.37;100.00
24610;BME280;12758;47.890;11.694;2022-11-28T00:42:46;93717.25;;;2.33;100.00
24610;BME280;12758;47.890;11.694;2022-11-28T00:45:12;93707.41;;;1.90;100.00
24610;BME280;12758;47.890;11.694;2022-11-28T00:47:38;93706.72;;;2.13;100.00
24610;BME280;12758;47.890;11.694;2022-11-28T00:50:05;93709.03;;;2.25;100.00
24610;BME280;12758;47.890;11.694;2022-11-28T00:52:32;93715.13;;;2.30;100.00
24610;BME280;12758;47.890;11.694;2022-11-28T00:54:58;93726.34;;;2.38;100.00
24610;BME280;12758;47.890;11.694;2022-11-28T00:57:24;93724.13;;;2.45;100.00
24610;BME280;12758;47.890;11.694;2022-11-28T00:59:50;93716.84;;;2.50;100.00
24610;BME280;12758;47.890;11.694;2022-11-28T01:02:17;93714.47;;;2.49;100.00
24610;BME280;12758;47.890;11.694;2022-11-28T01:04:43;93706.97;;;2.46;100.00
24610;BME280;12758;47.890;11.694;2022-11-28T01:07:09;93711.25;;;2.47;100.00
24610;BME280;12758;47.890;11.694;2022-11-28T01:09:35;93706.72;;;2.47;100.00
24610;BME280;12758;47.890;11.694;2022-11-28T01:12:01;93706.94;;;2.51;100.00
24610;BME280;12758;47.890;11.694;2022-11-28T01:14:27;93706.44;;;2.44;100.00
24610;BME280;12758;47.890;11.694;2022-11-28T01:16:55;93696.63;;;2.34;100.00
24610;BME280;12758;47.890;11.694;2022-11-28T01:19:21;93695.84;;;2.33;100.00
24610;BME280;12758;47.890;11.694;2022-11-28T01:21:47;93690.25;;;2.30;100.00
24610;BME280;12758;47.890;11.694;2022-11-28T01:24:13;93687.84;;;2.28;100.00
24610;BME280;12758;47.890;11.694;2022-11-28T01:26:40;93685.19;;;2.28;100.00
24610;BME280;12758;47.890;11.694;2022-11-28T01:29:07;93674.22;;;2.25;100.00
24610;BME280;12758;47.890;11.694;2022-11-28T01:31:33;93680.84;;;2.32;100.00
24610;BME280;12758;47.890;11.694;2022-11-28T01:34:00;93681.94;;;2.31;100.00
24610;BME280;12758;47.890;11.694;2022-11-28T01:36:26;93668.81;;;2.30;100.00
24610;BME280;12758;47.890;11.694;2022-11-28T01:38:52;93665.63;;;2.28;100.00
24610;BME280;12758;47.890;11.694;2022-11-28T01:41:20;93665.63;;;2.28;100.00
24610;BME280;12758;47.890;11.694;2022-11-28T01:44:04;93659.97;;;2.35;100.00
24610;BME280;12758;47.890;11.694;2022-11-28T01:46:31;93669.53;;;2.41;100.00
24610;BME280;12758;47.890;11.694;2022-11-28T01:49:00;93672.72;;;2.43;100.00
24610;BME280;12758;47.890;11.694;2022-11-28T01:51:27;93671.13;;;2.42;100.00
24610;BME280;12758;47.890;11.694;2022-11-28T01:53:54;93658.91;;;2.30;100.00
24610;BME280;12758;47.890;11.694;2022-11-28T01:56:22;93657.22;;;2.40;100.00
24610;BME280;12758;47.890;11.694;2022-11-28T01:58:53;93663.38;;;2.40;100.00
24610;BME280;12758;47.890;11.694;2022-11-28T02:01:20;93660.13;;;2.43;100.00
24610;BME280;12758;47.890;11.694;2022-11-28T02:03:48;93660.44;;;2.42;100.00
24610;BME280;12758;47.890;11.694;2022-11-28T02:06:17;93649.94;;;2.45;100.00
24610;BME280;12758;47.890;11.694;2022-11-28T02:08:44;93661.41;;;2.51;100.00
24610;BME280;12758;47.890;11.694;2022-11-28T02:11:25;93649.59;;;2.52;100.00
24610;BME280;12758;47.890;11.694;2022-11-28T02:13:57;93652.00;;;2.53;100.00
24610;BME280;12758;47.890;11.694;2022-11-28T02:16:43;93649.09;;;2.50;100.00
24610;BME280;12758;47.890;11.694;2022-11-28T02:19:28;93649.81;;;2.31;100.00
24610;BME280;12758;47.890;11.694;2022-11-28T02:21:58;93653.09;;;2.18;100.00
24610;BME280;12758;47.890;11.694;2022-11-28T02:24:48;93657.63;;;1.89;100.00
24610;BME280;12758;47.890;11.694;2022-11-28T02:27:27;93664.84;;;1.49;100.00
24610;BME280;12758;47.890;11.694;2022-11-28T02:30:13;93662.75;;;1.40;100.00
24610;BME280;12758;47.890;11.694;2022-11-28T02:32:59;93675.78;;;1.97;100.00
24610;BME280;12758;47.890;11.694;2022-11-28T02:35:33;93669.75;;;2.15;100.00
24610;BME280;12758;47.890;11.694;2022-11-28T02:38:06;93665.13;;;2.21;100.00
24610;BME280;12758;47.890;11.694;2022-11-28T02:40:36;93662.75;;;2.19;100.00
24610;BME280;12758;47.890;11.694;2022-11-28T02:43:05;93657.41;;;2.19;100.00
24610;BME280;12758;47.890;11.694;2022-11-28T02:45:37;93654.44;;;2.21;100.00
24610;BME280;12758;47.890;11.694;2022-11-28T02:48:25;93657.31;;;2.29;100.00
24610;BME280;12758;47.890;11.694;2022-11-28T02:50:56;93651.06;;;2.39;100.00
24610;BME280;12758;47.890;11.694;2022-11-28T02:53:25;93663.69;;;2.33;100.00
24610;BME280;12758;47.890;11.694;2022-11-28T02:55:53;93645.84;;;2.24;100.00
24610;BME280;12758;47.890;11.694;2022-11-28T02:58:21;93643.63;;;2.31;100.00
24610;BME280;12758;47.890;11.694;2022-11-28T03:00:47;93644.50;;;2.26;100.00
24610;BME280;12758;47.890;11.694;2022-11-28T03:03:37;93637.00;;;2.23;100.00
24610;BME280;12758;47.890;11.694;2022-11-28T03:06:10;93635.38;;;2.27;100.00
24610;BME280;12758;47.890;11.694;2022-11-28T03:08:47;93632.69;;;2.27;100.00
24610;BME280;12758;47.890;11.694;2022-11-28T03:11:18;93630.44;;;2.40;100.00
24610;BME280;12758;47.890;11.694;2022-11-28T03:13:50;93631.56;;;2.33;100.00
24610;BME280;12758;47.890;11.694;2022-11-28T03:16:22;93617.69;;;2.31;100.00
24610;BME280;12758;47.890;11.694;2022-11-28T03:18:58;93627.75;;;2.40;100.00
24610;BME280;12758;47.890;11.694;2022-11-28T03:21:32;93625.38;;;2.09;100.00
24610;BME280;12758;47.890;11.694;2022-11-28T03:24:05;93627.75;;;2.10;100.00
24610;BME280;12758;47.890;11.694;2022-11-28T03:26:36;93631.53;;;2.09;100.00
24610;BME280;12758;47.890;11.694;2022-11-28T03:29:09;93622.53;;;2.24;100.00
24610;BME280;12758;47.890;11.694;2022-11-28T03:31:38;93619.53;;;2.31;100.00
24610;BME280;12758;47.890;11.694;2022-11-28T03:34:08;93623.75;;;2.08;100.00
24610;BME280;12758;47.890;11.694;2022-11-28T03:36:38;93620.94;;;2.23;100.00
24610;BME280;12758;47.890;11.694;2022-11-28T03:39:07;93623.25;;;2.35;100.00
24610;BME280;12758;47.890;11.694;2022-11-28T03:41:35;93616.78;;;2.41;100.00
24610;BME280;12758;47.890;11.694;2022-11-28T03:44:02;93617.56;;;2.42;100.00
24610;BME280;12758;47.890;11.694;2022-11-28T03:46:34;93625.06;;;2.40;100.00
24610;BME280;12758;47.890;11.694;2022-11-28T03:49:02;93621.16;;;2.32;100.00
24610;BME280;12758;47.890;11.694;2022-11-28T03:51:31;93608.31;;;2.29;100.00
24610;BME280;12758;47.890;11.694;2022-11-28T03:54:02;93609.13;;;2.29;100.00
24610;BME280;12758;47.890;11.694;2022-11-28T03:56:33;93614.66;;;2.38;100.00
24610;BME280;12758;47.890;11.694;2022-11-28T03:59:04;93605.44;;;2.20;100.00
24610;BME280;12758;47.890;11.694;2022-11-28T04:01:35;93600.09;;;2.20;100.00
24610;BME280;12758;47.890;11.694;2022-11-28T04:04:10;93596.31;;;2.21;100.00
24610;BME280;12758;47.890;11.694;2022-11-28T04:06:48;93583.50;;;2.18;100.00
24610;BME280;12758;47.890;11.694;2022-11-28T04:09:17;93580.81;;;2.18;100.00
24610;BME280;12758;47.890;11.694;2022-11-28T04:11:48;93582.91;;;2.26;100.00
24610;BME280;12758;47.890;11.694;2022-11-28T04:14:18;93581.09;;;2.22;100.00
24610;BME280;12758;47.890;11.694;2022-11-28T04:16:47;93570.13;;;2.18;100.00
24610;BME280;12758;47.890;11.694;2022-11-28T04:19:18;93570.59;;;2.25;100.00
24610;BME280;12758;47.890;11.694;2022-11-28T04:21:50;93567.28;;;2.33;100.00
24610;BME280;12758;47.890;11.694;2022-11-28T04:24:22;93571.25;;;2.41;100.00
24610;BME280;12758;47.890;11.694;2022-11-28T04:26:51;93573.09;;;2.41;100.00
24610;BME280;12758;47.890;11.694;2022-11-28T04:29:21;93563.03;;;2.32;100.00
24610;BME280;12758;47.890;11.694;2022-11-28T04:31:48;93558.75;;;2.31;100.00
24610;BME280;12758;47.890;11.694;2022-11-28T04:34:16;93568.19;;;2.24;100.00
24610;BME280;12758;47.890;11.694;2022-11-28T04:36:43;93563.06;;;2.27;100.00
24610;BME280;12758;47.890;11.694;2022-11-28T04:39:13;93566.84;;;2.26;100.00
24610;BME280;12758;47.890;11.694;2022-11-28T04:41:42;93564.69;;;2.28;100.00
24610;BME280;12758;47.890;11.694;2022-11-28T04:44:12;93550.44;;;2.33;100.00
24610;BME280;12758;47.890;11.694;2022-11-28T04:46:42;93560.81;;;2.40;100.00
24610;BME280;12758;47.890;11.694;2022-11-28T04:49:09;93549.31;;;2.39;100.00
24610;BME280;12758;47.890;11.694;2022-11-28T04:51:40;93547.38;;;2.45;100.00
24610;BME280;12758;47.890;11.694;2022-11-28T04:54:10;93547.94;;;2.42;100.00
24610;BME280;12758;47.890;11.694;2022-11-28T04:56:41;93543.16;;;2.39;100.00
24610;BME280;12758;47.890;11.694;2022-11-28T04:59:09;93538.94;;;2.32;100.00
24610;BME280;12758;47.890;11.694;2022-11-28T05:01:36;93539.94;;;2.37;100.00
24610;BME280;12758;47.890;11.694;2022-11-28T05:04:03;93543.16;;;2.39;100.00
24610;BME280;12758;47.890;11.694;2022-11-28T05:06:31;93534.03;;;2.40;100.00
24610;BME280;12758;47.890;11.694;2022-11-28T05:08:57;93542.25;;;2.48;100.00
24610;BME280;12758;47.890;11.694;2022-11-28T05:11:24;93543.81;;;2.49;100.00
24610;BME280;12758;47.890;11.694;2022-11-28T05:13:51;93542.25;;;2.48;100.00
24610;BME280;12758;47.890;11.694;2022-11-28T05:16:17;93538.78;;;2.48;100.00
24610;BME280;12758;47.890;11.694;2022-11-28T05:18:43;93545.72;;;2.49;100.00
24610;BME280;12758;47.890;11.694;2022-11-28T05:21:09;93543.25;;;2.52;100.00
24610;BME280;12758;47.890;11.694;2022-11-28T05:23:36;93549.97;;;2.50;100.00
24610;BME280;12758;47.890;11.694;2022-11-28T05:26:04;93537.50;;;2.40;100.00
24610;BME280;12758;47.890;11.694;2022-11-28T05:28:30;93530.66;;;2.29;100.00
24610;BME280;12758;47.890;11.694;2022-11-28T05:30:57;93524.00;;;2.26;100.00
24610;BME280;12758;47.890;11.694;2022-11-28T05:33:23;93528.34;;;2.22;100.00
24610;BME280;12758;47.890;11.694;2022-11-28T05:35:49;93525.66;;;2.22;100.00
24610;BME280;12758;47.890;11.694;2022-11-28T05:38:15;93533.91;;;2.26;100.00
24610;BME280;12758;47.890;11.694;2022-11-28T05:40:41;93539.50;;;2.29;100.00
24610;BME280;12758;47.890;11.694;2022-11-28T05:43:08;93523.31;;;2.40;100.00
24610;BME280;12758;47.890;11.694;2022-11-28T05:45:38;93531.91;;;2.37;100.00
24610;BME280;12758;47.890;11.694;2022-11-28T05:48:05;93534.56;;;2.42;100.00
24610;BME280;12758;47.890;11.694;2022-11-28T05:50:31;93540.94;;;1.93;100.00
24610;BME280;12758;47.890;11.694;2022-11-28T05:52:57;93578.72;;;0.42;100.00
24610;BME280;12758;47.890;11.694;2022-11-28T05:55:23;93591.06;;;0.23;100.00
24610;BME280;12758;47.890;11.694;2022-11-28T05:57:49;93574.22;;;0.33;100.00
24610;BME280;12758;47.890;11.694;2022-11-28T06:00:16;93579.81;;;0.36;100.00
24610;BME280;12758;47.890;11.694;2022-11-28T06:02:42;93603.31;;;0.24;100.00
24610;BME280;12758;47.890;11.694;2022-11-28T06:05:09;93593.72;;;0.18;100.00
24610;BME280;12758;47.890;11.694;2022-11-28T06:07:35;93586.25;;;0.20;100.00
24610;BME280;12758;47.890;11.694;2022-11-28T06:10:01;93574.41;;;0.57;100.00
24610;BME280;12758;47.890;11.694;2022-11-28T06:12:27;93580.31;;;0.38;100.00
24610;BME280;12758;47.890;11.694;2022-11-28T06:14:53;93579.63;;;0.82;100.00
24610;BME280;12758;47.890;11.694;2022-11-28T06:17:19;93573.97;;;0.94;100.00
24610;BME280;12758;47.890;11.694;2022-11-28T06:19:45;93582.78;;;1.00;100.00
24610;BME280;12758;47.890;11.694;2022-11-28T06:22:12;93578.47;;;1.04;100.00
24610;BME280;12758;47.890;11.694;2022-11-28T06:24:38;93573.06;;;1.19;100.00
24610;BME280;12758;47.890;11.694;2022-11-28T06:27:04;93565.06;;;1.09;100.00
24610;BME280;12758;47.890;11.694;2022-11-28T06:29:30;93573.75;;;0.80;100.00
24610;BME280;12758;47.890;11.694;2022-11-28T06:31:56;93573.75;;;0.80;100.00
24610;BME280;12758;47.890;11.694;2022-11-28T06:34:22;93589.22;;;0.93;100.00
24610;BME280;12758;47.890;11.694;2022-11-28T06:36:48;93582.19;;;1.08;100.00
24610;BME280;12758;47.890;11.694;2022-11-28T06:39:16;93578.00;;;0.97;100.00
24610;BME280;12758;47.890;11.694;2022-11-28T06:41:42;93569.31;;;1.15;100.00
24610;BME280;12758;47.890;11.694;2022-11-28T06:44:08;93568.09;;;1.42;100.00
24610;BME280;12758;47.890;11.694;2022-11-28T06:46:36;93576.75;;;1.23;100.00
24610;BME280;12758;47.890;11.694;2022-11-28T06:49:03;93564.97;;;1.24;100.00
24610;BME280;12758;47.890;11.694;2022-11-28T06:51:29;93566.38;;;1.16;100.00
24610;BME280;12758;47.890;11.694;2022-11-28T06:53:55;93570.41;;;1.09;100.00
24610;BME280;12758;47.890;11.694;2022-11-28T06:56:22;93553.09;;;1.46;100.00
24610;BME280;12758;47.890;11.694;2022-11-28T06:58:52;93563.63;;;1.66;100.00
24610;BME280;12758;47.890;11.694;2022-11-28T07:01:20;93562.81;;;1.71;100.00
24610;BME280;12758;47.890;11.694;2022-11-28T07:03:47;93561.09;;;1.46;100.00
24610;BME280;12758;47.890;11.694;2022-11-28T07:06:14;93547.00;;;1.69;100.00
24610;BME280;12758;47.890;11.694;2022-11-28T07:08:41;93544.72;;;1.57;100.00
24610;BME280;12758;47.890;11.694;2022-11-28T07:11:09;93547.63;;;1.61;100.00
24610;BME280;12758;47.890;11.694;2022-11-28T07:13:36;93537.19;;;1.59;100.00
24610;BME280;12758;47.890;11.694;2022-11-28T07:16:03;93530.16;;;1.69;100.00
24610;BME280;12758;47.890;11.694;2022-11-28T07:18:29;93535.44;;;1.79;100.00
24610;BME280;12758;47.890;11.694;2022-11-28T07:20:55;93528.41;;;1.88;100.00
24610;BME280;12758;47.890;11.694;2022-11-28T07:23:21;93520.16;;;1.79;100.00
24610;BME280;12758;47.890;11.694;2022-11-28T07:25:47;93522.38;;;1.72;100.00
24610;BME280;12758;47.890;11.694;2022-11-28T07:28:13;93525.22;;;1.52;100.00
24610;BME280;12758;47.890;11.694;2022-11-28T07:30:40;93530.97;;;1.35;100.00
24610;BME280;12758;47.890;11.694;2022-11-28T07:33:06;93525.78;;;1.49;100.00
24610;BME280;12758;47.890;11.694;2022-11-28T07:35:32;93527.47;;;1.39;100.00
24610;BME280;12758;47.890;11.694;2022-11-28T07:37:58;93525.06;;;1.72;100.00
24610;BME280;12758;47.890;11.694;2022-11-28T07:40:24;93527.44;;;1.45;100.00
24610;BME280;12758;47.890;11.694;2022-11-28T07:42:50;93531.13;;;1.49;100.00
24610;BME280;12758;47.890;11.694;2022-11-28T07:45:16;93536.00;;;1.42;100.00
24610;BME280;12758;47.890;11.694;2022-11-28T07:47:43;93538.31;;;1.53;100.00
24610;BME280;12758;47.890;11.694;2022-11-28T07:50:09;93535.94;;;1.52;100.00
24610;BME280;12758;47.890;11.694;2022-11-28T07:52:35;93541.66;;;1.69;100.00
24610;BME280;12758;47.890;11.694;2022-11-28T07:55:01;93544.06;;;1.36;100.00
24610;BME280;12758;47.890;11.694;2022-11-28T07:57:27;93543.97;;;1.47;100.00
24610;BME280;12758;47.890;11.694;2022-11-28T07:59:55;93542.63;;;1.10;100.00
24610;BME280;12758;47.890;11.694;2022-11-28T08:02:21;93548.63;;;1.31;100.00
24610;BME280;12758;47.890;11.694;2022-11-28T08:04:47;93563.19;;;1.14;100.00
24610;BME280;12758;47.890;11.694;2022-11-28T08:07:13;93555.13;;;1.20;100.00
24610;BME280;12758;47.890;11.694;2022-11-28T08:09:39;93550.94;;;1.48;100.00
24610;BME280;12758;47.890;11.694;2022-11-28T08:12:06;93549.97;;;1.68;100.00
24610;BME280;12758;47.890;11.694;2022-11-28T08:14:32;93546.00;;;1.60;100.00
24610;BME280;12758;47.890;11.694;2022-11-28T08:16:58;93543.19;;;1.80;100.00
24610;BME280;12758;47.890;11.694;2022-11-28T08:19:24;93549.69;;;1.98;100.00
24610;BME280;12758;47.890;11.694;2022-11-28T08:21:51;93544.69;;;1.92;100.00
24610;BME280;12758;47.890;11.694;2022-11-28T08:24:17;93543.00;;;2.01;100.00
24610;BME280;12758;47.890;11.694;2022-11-28T08:26:43;93535.97;;;2.05;100.00
24610;BME280;12758;47.890;11.694;2022-11-28T08:29:09;93536.50;;;2.07;100.00
24610;BME280;12758;47.890;11.694;2022-11-28T08:31:36;93533.22;;;2.15;100.00
24610;BME280;12758;47.890;11.694;2022-11-28T08:34:05;93520.91;;;2.14;100.00
24610;BME280;12758;47.890;11.694;2022-11-28T08:36:31;93526.22;;;2.19;100.00
24610;BME280;12758;47.890;11.694;2022-11-28T08:38:58;93524.59;;;2.18;100.00
24610;BME280;12758;47.890;11.694;2022-11-28T08:41:25;93513.97;;;2.13;100.00
24610;BME280;12758;47.890;11.694;2022-11-28T08:43:51;93512.66;;;2.10;100.00
24610;BME280;12758;47.890;11.694;2022-11-28T08:46:18;93508.75;;;1.98;100.00
24610;BME280;12758;47.890;11.694;2022-11-28T08:48:45;93523.78;;;1.65;100.00
24610;BME280;12758;47.890;11.694;2022-11-28T08:51:12;93551.69;;;1.14;100.00
24610;BME280;12758;47.890;11.694;2022-11-28T08:53:39;93543.25;;;0.97;100.00
24610;BME280;12758;47.890;11.694;2022-11-28T08:56:06;93556.31;;;1.03;100.00
24610;BME280;12758;47.890;11.694;2022-11-28T08:58:32;93563.00;;;1.01;100.00
24610;BME280;12758;47.890;11.694;2022-11-28T09:00:58;93573.09;;;1.09;100.00
24610;BME280;12758;47.890;11.694;2022-11-28T09:03:25;93558.06;;;1.18;100.00
24610;BME280;12758;47.890;11.694;2022-11-28T09:05:51;93548.31;;;1.37;100.00
24610;BME280;12758;47.890;11.694;2022-11-28T09:08:18;93546.06;;;1.55;100.00
24610;BME280;12758;47.890;11.694;2022-11-28T09:10:45;93558.59;;;1.59;100.00
24610;BME280;12758;47.890;11.694;2022-11-28T09:13:13;93562.50;;;1.72;100.00
24610;BME280;12758;47.890;11.694;2022-11-28T09:15:40;93552.50;;;1.83;100.00
24610;BME280;12758;47.890;11.694;2022-11-28T09:18:06;93544.22;;;1.84;100.00
24610;BME280;12758;47.890;11.694;2022-11-28T09:20:32;93546.28;;;1.93;100.00
24610;BME280;12758;47.890;11.694;2022-11-28T09:22:59;93542.53;;;1.94;100.00
24610;BME280;12758;47.890;11.694;2022-11-28T09:25:25;93544.69;;;1.92;100.00
24610;BME280;12758;47.890;11.694;2022-11-28T09:27:51;93549.56;;;1.84;100.00
24610;BME280;12758;47.890;11.694;2022-11-28T09:30:17;93554.81;;;1.95;100.00
24610;BME280;12758;47.890;11.694;2022-11-28T09:32:47;93547.81;;;1.99;100.00
24610;BME280;12758;47.890;11.694;2022-11-28T09:35:13;93545.97;;;1.99;100.00
24610;BME280;12758;47.890;11.694;2022-11-28T09:37:39;93547.88;;;1.94;100.00
24610;BME280;12758;47.890;11.694;2022-11-28T09:40:09;93543.56;;;1.98;100.00
24610;BME280;12758;47.890;11.694;2022-11-28T09:42:40;93540.84;;;2.03;100.00
24610;BME280;12758;47.890;11.694;2022-11-28T09:45:11;93549.03;;;2.12;100.00
24610;BME280;12758;47.890;11.694;2022-11-28T09:47:39;93555.78;;;2.09;100.00
24610;BME280;12758;47.890;11.694;2022-11-28T09:50:09;93550.13;;;2.10;100.00
24610;BME280;12758;47.890;11.694;2022-11-28T09:52:43;93556.28;;;2.11;100.00
24610;BME280;12758;47.890;11.694;2022-11-28T09:55:15;93552.00;;;2.10;100.00
24610;BME280;12758;47.890;11.694;2022-11-28T09:57:45;93554.69;;;2.10;100.00
24610;BME280;12758;47.890;11.694;2022-11-28T10:00:15;93548.25;;;2.11;100.00
24610;BME280;12758;47.890;11.694;2022-11-28T10:02:48;93554.13;;;2.13;100.00
24610;BME280;12758;47.890;11.694;2022-11-28T10:05:23;93552.25;;;2.14;100.00
24610;BME280;12758;47.890;11.694;2022-11-28T10:07:59;93551.69;;;2.17;100.00
24610;BME280;12758;47.890;11.694;2022-11-28T10:10:33;93547.69;;;2.14;100.00
24610;BME280;12758;47.890;11.694;2022-11-28T10:13:07;93552.47;;;2.17;100.00
24610;BME280;12758;47.890;11.694;2022-11-28T10:15:45;93543.31;;;2.23;100.00
24610;BME280;12758;47.890;11.694;2022-11-28T10:18:32;93556.56;;;2.82;100.00
24610;BME280;12758;47.890;11.694;2022-11-28T10:21:01;93546.13;;;3.42;100.00
24610;BME280;12758;47.890;11.694;2022-11-28T10:23:30;93554.81;;;3.15;100.00
24610;BME280;12758;47.890;11.694;2022-11-28T10:26:00;93552.41;;;3.13;100.00
24610;BME280;12758;47.890;11.694;2022-11-28T10:28:31;93546.09;;;3.04;100.00
24610;BME280;12758;47.890;11.694;2022-11-28T10:31:02;93540.19;;;3.45;100.00
24610;BME280;12758;47.890;11.694;2022-11-28T10:33:30;93537.91;;;3.52;100.00
24610;BME280;12758;47.890;11.694;2022-11-28T10:36:00;93526.41;;;3.33;100.00
24610;BME280;12758;47.890;11.694;2022-11-28T10:38:30;93542.63;;;3.60;100.00
24610;BME280;12758;47.890;11.694;2022-11-28T10:40:59;93531.38;;;3.58;100.00
24610;BME280;12758;47.890;11.694;2022-11-28T10:43:31;93530.22;;;3.64;100.00
24610;BME280;12758;47.890;11.694;2022-11-28T10:46:08;93525.91;;;3.82;99.24
24610;BME280;12758;47.890;11.694;2022-11-28T10:48:43;93528.09;;;3.80;100.00
24610;BME280;12758;47.890;11.694;2022-11-28T10:51:18;93528.13;;;3.94;98.62
24610;BME280;12758;47.890;11.694;2022-11-28T10:53:54;93537.00;;;3.76;100.00
24610;BME280;12758;47.890;11.694;2022-11-28T10:56:28;93536.59;;;3.68;100.00
24610;BME280;12758;47.890;11.694;2022-11-28T10:58:58;93531.53;;;3.67;100.00
24610;BME280;12758;47.890;11.694;2022-11-28T11:01:28;93532.63;;;3.99;100.00
24610;BME280;12758;47.890;11.694;2022-11-28T11:03:56;93539.53;;;3.86;100.00
24610;BME280;12758;47.890;11.694;2022-11-28T11:06:24;93535.84;;;3.82;100.00
24610;BME280;12758;47.890;11.694;2022-11-28T11:08:50;93530.91;;;3.89;100.00
24610;BME280;12758;47.890;11.694;2022-11-28T11:11:21;93531.72;;;4.03;100.00
24610;BME280;12758;47.890;11.694;2022-11-28T11:13:58;93529.22;;;3.93;100.00
24610;BME280;12758;47.890;11.694;2022-11-28T11:16:24;93527.78;;;4.14;97.01
24610;BME280;12758;47.890;11.694;2022-11-28T11:18:53;93537.13;;;4.17;96.33
24610;BME280;12758;47.890;11.694;2022-11-28T11:21:21;93542.63;;;4.26;99.77
24610;BME280;12758;47.890;11.694;2022-11-28T11:23:49;93536.97;;;4.27;97.39
24610;BME280;12758;47.890;11.694;2022-11-28T11:26:19;93536.66;;;4.29;96.74
24610;BME280;12758;47.890;11.694;2022-11-28T11:28:47;93524.22;;;4.33;97.49
24610;BME280;12758;47.890;11.694;2022-11-28T11:31:18;93535.88;;;4.42;93.85
24610;BME280;12758;47.890;11.694;2022-11-28T11:33:45;93537.06;;;4.36;95.65
24610;BME280;12758;47.890;11.694;2022-11-28T11:36:24;93524.03;;;4.71;93.78
24610;BME280;12758;47.890;11.694;2022-11-28T11:38:51;93525.22;;;4.51;93.77
24610;BME280;12758;47.890;11.694;2022-11-28T11:41:29;93527.22;;;4.45;94.75
24610;BME280;12758;47.890;11.694;2022-11-28T11:43:56;93528.41;;;4.39;97.06
24610;BME280;12758;47.890;11.694;2022-11-28T11:46:22;93523.84;;;4.53;96.83
24610;BME280;12758;47.890;11.694;2022-11-28T11:48:50;93528.03;;;4.59;96.67
24610;BME280;12758;47.890;11.694;2022-11-28T11:51:21;93525.22;;;4.78;94.14
24610;BME280;12758;47.890;11.694;2022-11-28T11:53:58;93518.84;;;4.88;92.81
24610;BME280;12758;47.890;11.694;2022-11-28T11:56:25;93513.97;;;4.49;95.46
24610;BME280;12758;47.890;11.694;2022-11-28T11:58:52;93515.75;;;4.39;97.17
24610;BME280;12758;47.890;11.694;2022-11-28T12:01:19;93510.88;;;4.55;95.26
24610;BME280;12758;47.890;11.694;2022-11-28T12:03:48;93514.84;;;4.16;96.27
24610;BME280;12758;47.890;11.694;2022-11-28T12:06:20;93514.16;;;4.25;98.64
24610;BME280;12758;47.890;11.694;2022-11-28T12:08:49;93512.38;;;4.34;96.75
24610;BME280;12758;47.890;11.694;2022-11-28T12:11:18;93522.22;;;4.52;96.23
24610;BME280;12758;47.890;11.694;2022-11-28T12:13:48;93513.88;;;4.67;97.51
24610;BME280;12758;47.890;11.694;2022-11-28T12:16:24;93517.16;;;4.92;99.30
24610;BME280;12758;47.890;11.694;2022-11-28T12:18:59;93514.41;;;5.20;97.65
24610;BME280;12758;47.890;11.694;2022-11-28T12:21:31;93513.41;;;5.16;93.91
24610;BME280;12758;47.890;11.694;2022-11-28T12:24:07;93506.81;;;5.22;92.44
24610;BME280;12758;47.890;11.694;2022-11-28T12:26:43;93508.59;;;5.26;91.27
24610;BME280;12758;47.890;11.694;2022-11-28T12:29:21;93505.00;;;5.31;90.06
24610;BME280;12758;47.890;11.694;2022-11-28T12:31:55;93507.72;;;5.31;89.64
24610;BME280;12758;47.890;11.694;2022-11-28T12:34:27;93510.41;;;5.31;95.49
24610;BME280;12758;47.890;11.694;2022-11-28T12:36:58;93510.03;;;5.24;96.73
24610;BME280;12758;47.890;11.694;2022-11-28T12:39:31;93514.19;;;5.30;93.71
24610;BME280;12758;47.890;11.694;2022-11-28T12:45:12;93506.00;;;5.35;97.71
24610;BME280;12758;47.890;11.694;2022-11-28T12:47:43;93504.88;;;5.36;95.37
24610;BME280;12758;47.890;11.694;2022-11-28T12:50:20;93510.59;;;5.34;100.00
24610;BME280;12758;47.890;11.694;2022-11-28T12:52:53;93516.00;;;5.21;100.00
24610;BME280;12758;47.890;11.694;2022-11-28T12:55:25;93512.22;;;5.22;100.00
24610;BME280;12758;47.890;11.694;2022-11-28T12:57:56;93515.41;;;5.24;100.00
24610;BME280;12758;47.890;11.694;2022-11-28T13:00:26;93518.28;;;5.13;100.00
24610;BME280;12758;47.890;11.694;2022-11-28T13:03:03;93514.25;;;5.02;100.00